Time;durP1;ratioP1;P1;durP2;ratioP2;P2;SDS_P1;SDS_P2;PMS_P1;PMS_P2;Temp;Humidity;BMP_temperature;BMP_pressure;BME280_temperature;BME280_humidity;BME280_pressure;Samples;Min_cycle;Max_cycle;Signal;HPM_P1;HPM_P2
2022/05/31 00:01:57;;;;;;;10.87;7.07;;;;;;;-145.18;100.00;46623.28;4914556;29;20040;-72
2022/05/31 00:04:22;;;;;;;11.73;7.00;;;;;;;-145.18;100.00;46619.38;4915106;29;20063;-71
2022/05/31 00:06:48;;;;;;;12.63;6.93;;;;;;;-145.18;100.00;46621.31;4914922;29;20100;-72
2022/05/31 00:09:14;;;;;;;10.40;6.90;;;;;;;-145.18;100.00;46617.41;4915274;29;20040;-71
2022/05/31 00:11:41;;;;;;;9.83;6.90;;;;;;;-145.18;100.00;46617.41;4914607;29;20032;-72
2022/05/31 00:14:08;;;;;;;10.40;6.70;;;;;;;-145.18;100.00;46621.31;4915469;29;20494;-71
2022/05/31 00:16:33;;;;;;;10.57;7.17;;;;;;;-145.18;100.00;46619.38;4914519;29;20044;-72
2022/05/31 00:18:59;;;;;;;10.70;7.27;;;;;;;-145.18;100.00;46625.22;4914981;29;20055;-72
2022/05/31 00:21:38;;;;;;;8.23;6.77;;;;;;;-145.18;100.00;46625.22;4914867;29;20059;-72
2022/05/31 00:24:06;;;;;;;14.50;7.43;;;;;;;-145.18;100.00;46621.31;4915183;29;20496;-72
2022/05/31 00:26:32;;;;;;;8.40;7.30;;;;;;;-145.18;100.00;46625.22;4926392;29;20281;-71
2022/05/31 00:28:57;;;;;;;12.73;7.27;;;;;;;-145.18;100.00;46617.41;4914666;29;20466;-72
2022/05/31 00:31:23;;;;;;;11.67;7.73;;;;;;;-145.18;100.00;46625.22;4924972;29;20063;-72
2022/05/31 00:33:49;;;;;;;12.07;7.87;;;;;;;-145.18;100.00;46623.28;4916322;29;20032;-72
2022/05/31 00:36:15;;;;;;;10.03;7.30;;;;;;;-145.18;100.00;46625.22;4914689;29;20286;-72
2022/05/31 00:38:40;;;;;;;15.90;7.90;;;;;;;-145.18;100.00;46621.31;4914293;29;20040;-72
2022/05/31 00:41:23;;;;;;;8.37;7.00;;;;;;;-145.18;100.00;46625.22;4914764;29;20051;-72
2022/05/31 00:43:59;;;;;;;9.57;6.73;;;;;;;-145.18;100.00;46631.09;4916301;29;20071;-71
2022/05/31 00:46:29;;;;;;;12.97;7.97;;;;;;;-145.18;100.00;46625.22;4924024;29;20266;-71
2022/05/31 00:49:02;;;;;;;10.30;7.30;;;;;;;-145.18;100.00;46621.31;4914133;29;20310;-71
2022/05/31 00:51:39;;;;;;;12.00;7.50;;;;;;;-145.18;100.00;46621.31;4914272;29;20379;-72
2022/05/31 00:54:10;;;;;;;14.27;7.87;;;;;;;-145.18;100.00;46625.22;4914426;29;20271;-72
2022/05/31 00:56:36;;;;;;;17.43;7.53;;;;;;;-145.18;100.00;46625.22;4914371;29;20297;-71
2022/05/31 00:59:08;;;;;;;11.57;6.80;;;;;;;-145.18;100.00;46625.22;4914370;29;20772;-72
2022/05/31 01:01:40;;;;;;;10.83;6.47;;;;;;;-145.18;100.00;46621.31;4913884;29;20454;-71
2022/05/31 01:04:07;;;;;;;21.27;7.57;;;;;;;-145.18;100.00;46621.31;4914247;29;20293;-71
2022/05/31 01:06:33;;;;;;;11.77;6.63;;;;;;;-145.18;100.00;46621.31;4913988;29;20267;-72
2022/05/31 01:09:00;;;;;;;10.20;6.83;;;;;;;-145.18;100.00;46623.28;4914160;29;20040;-72
2022/05/31 01:11:28;;;;;;;11.33;7.03;;;;;;;-145.18;100.00;46619.38;4913683;29;20783;-72
2022/05/31 01:13:55;;;;;;;8.37;6.80;;;;;;;-145.18;100.00;46627.19;4916737;29;20354;-71
2022/05/31 01:16:21;;;;;;;11.10;6.90;;;;;;;-145.18;100.00;46617.41;4919329;29;20298;-71
2022/05/31 01:18:46;;;;;;;12.43;6.37;;;;;;;-145.18;100.00;46623.28;4918651;29;20281;-71
2022/05/31 01:21:12;;;;;;;11.43;6.77;;;;;;;-145.18;100.00;46617.41;4921436;29;20039;-71
2022/05/31 01:23:45;;;;;;;14.37;7.90;;;;;;;-145.18;100.00;46619.38;4913636;29;20040;-71
2022/05/31 01:26:18;;;;;;;10.77;6.73;;;;;;;-145.18;100.00;46623.28;4913760;29;20086;-71
2022/05/31 01:28:49;;;;;;;8.60;6.63;;;;;;;-145.18;100.00;46615.47;4913603;29;20278;-71
2022/05/31 01:31:42;;;;;;;11.40;6.87;;;;;;;-145.18;100.00;46621.31;4914018;29;20278;-71
2022/05/31 01:34:18;;;;;;;11.33;6.93;;;;;;;-145.18;100.00;46619.38;4914150;29;20275;-71
2022/05/31 01:36:55;;;;;;;9.63;7.33;;;;;;;-145.18;100.00;46623.28;4913392;29;20270;-72
2022/05/31 01:39:51;;;;;;;9.47;6.80;;;;;;;-145.18;100.00;46619.38;4919910;29;20286;-71
2022/05/31 01:42:26;;;;;;;12.10;7.15;;;;;;;-145.18;100.00;46625.22;4915459;29;20326;-71
2022/05/31 01:44:58;;;;;;;12.15;7.07;;;;;;;-145.18;100.00;46619.38;4914121;29;20032;-71
2022/05/31 01:47:24;;;;;;;14.73;7.73;;;;;;;-145.18;100.00;46617.41;4913670;29;20020;-71
2022/05/31 01:49:53;;;;;;;9.93;7.10;;;;;;;-145.18;100.00;46617.41;4913680;29;20283;-71
2022/05/31 01:52:20;;;;;;;10.33;7.17;;;;;;;-145.18;100.00;46621.31;4913434;29;20285;-71
2022/05/31 01:54:46;;;;;;;12.30;7.47;;;;;;;-145.18;100.00;46623.28;4915502;29;20286;-71
2022/05/31 01:57:16;;;;;;;12.10;7.83;;;;;;;-145.18;100.00;46619.38;4917467;29;20951;-71
2022/05/31 01:59:46;;;;;;;17.30;7.90;;;;;;;-145.18;100.00;46629.13;4920229;29;20269;-72
2022/05/31 02:02:15;;;;;;;13.13;7.23;;;;;;;-145.18;100.00;46633.06;5050608;23;20341;-71
2022/05/31 02:04:41;;;;;;;11.63;7.27;;;;;;;-145.18;100.00;46631.09;4927569;29;20290;-71
2022/05/31 02:07:15;;;;;;;12.13;7.17;;;;;;;-145.18;100.00;46638.91;4933754;29;20273;-71
2022/05/31 02:09:42;;;;;;;13.23;7.30;;;;;;;-145.18;100.00;46656.50;4934445;29;20267;-71
2022/05/31 02:12:09;;;;;;;9.60;6.63;;;;;;;-145.18;100.00;46660.41;4931731;29;20373;-71
2022/05/31 02:14:36;;;;;;;14.10;7.73;;;;;;;-145.18;100.00;46660.41;4936165;29;20361;-71
2022/05/31 02:17:01;;;;;;;15.27;7.40;;;;;;;-145.18;100.00;46660.41;4934651;29;20282;-71
2022/05/31 02:19:28;;;;;;;9.17;6.63;;;;;;;-145.18;100.00;46631.09;4936168;29;20273;-71
2022/05/31 02:21:56;;;;;;;10.87;7.27;;;;;;;-145.18;100.00;46631.09;4935688;29;20071;-71
2022/05/31 02:24:22;;;;;;;10.33;7.53;;;;;;;-145.18;100.00;46627.19;4929123;29;20263;-71
2022/05/31 02:26:48;;;;;;;13.47;7.33;;;;;;;-145.18;100.00;46631.09;4929913;29;20320;-71
2022/05/31 02:29:17;;;;;;;11.40;7.50;;;;;;;-145.18;100.00;46636.94;4936025;29;20656;-71
2022/05/31 02:31:43;;;;;;;10.83;6.87;;;;;;;-145.18;100.00;46654.53;4935976;29;20039;-70
2022/05/31 02:34:10;;;;;;;9.93;7.53;;;;;;;-145.18;100.00;46660.41;4922380;29;20270;-71
2022/05/31 02:36:36;;;;;;;12.07;7.40;;;;;;;-145.18;100.00;46654.53;4935854;29;20270;-71
2022/05/31 02:39:03;;;;;;;13.77;8.30;;;;;;;-145.18;100.00;46670.16;4936056;29;20270;-71
2022/05/31 02:41:31;;;;;;;13.47;8.10;;;;;;;-145.18;100.00;46672.13;4935979;29;20028;-71
2022/05/31 02:43:57;;;;;;;12.10;7.97;;;;;;;-145.18;100.00;46677.97;4935618;29;20645;-70
2022/05/31 02:46:23;;;;;;;8.67;7.23;;;;;;;-145.18;100.00;46681.88;4936295;29;20845;-71
2022/05/31 02:48:48;;;;;;;12.97;8.57;;;;;;;-145.18;100.00;46699.47;4935374;29;20416;-71
2022/05/31 02:51:15;;;;;;;15.93;7.67;;;;;;;-145.18;100.00;46697.50;4922123;29;20274;-71
2022/05/31 02:53:40;;;;;;;12.97;7.83;;;;;;;-145.18;100.00;46701.41;4935465;29;20032;-71
2022/05/31 02:56:06;;;;;;;12.20;7.60;;;;;;;-145.18;100.00;46699.47;4935692;28;20036;-71
2022/05/31 02:58:32;;;;;;;13.97;7.90;;;;;;;-145.18;100.00;46701.41;4935589;29;20111;-71
2022/05/31 03:00:58;;;;;;;17.40;7.53;;;;;;;-145.18;100.00;46705.31;4935550;29;20337;-71
2022/05/31 03:03:23;;;;;;;9.53;7.30;;;;;;;-145.18;100.00;46697.50;4929155;29;20310;-71
2022/05/31 03:05:50;;;;;;;10.63;6.63;;;;;;;-145.18;100.00;46699.47;4925898;29;20481;-71
2022/05/31 03:08:17;;;;;;;13.87;7.30;;;;;;;-145.18;100.00;46701.41;4917920;29;20540;-71
2022/05/31 03:10:47;;;;;;;13.60;7.13;;;;;;;-145.18;100.00;46697.50;4916445;29;20281;-71
2022/05/31 03:13:15;;;;;;;10.03;6.93;;;;;;;-145.18;100.00;46695.56;4916253;29;20263;-71
2022/05/31 03:15:40;;;;;;;10.20;6.83;;;;;;;-145.18;100.00;46699.47;4916158;29;20275;-71
2022/05/31 03:18:10;;;;;;;11.00;7.47;;;;;;;-145.18;100.00;46689.69;4916202;29;20277;-71
2022/05/31 03:20:48;;;;;;;10.10;7.50;;;;;;;-145.18;100.00;46695.56;4916375;29;20020;-71
2022/05/31 03:23:32;;;;;;;15.10;8.70;;;;;;;-145.18;100.00;46701.41;4915882;29;20285;-70
2022/05/31 03:26:00;;;;;;;11.43;7.87;;;;;;;-145.18;100.00;46699.47;4916205;29;20767;-70
2022/05/31 03:28:27;;;;;;;14.70;8.90;;;;;;;-145.18;100.00;46701.41;4929080;29;20763;-70
2022/05/31 03:30:53;;;;;;;12.17;8.30;;;;;;;-145.18;100.00;46699.47;4916179;29;20274;-71
2022/05/31 03:33:19;;;;;;;14.60;9.00;;;;;;;-145.18;100.00;46695.56;4915764;29;20271;-71
2022/05/31 03:35:44;;;;;;;15.83;8.17;;;;;;;-145.18;100.00;46703.38;4921034;29;20627;-71
2022/05/31 03:38:10;;;;;;;12.10;7.73;;;;;;;-145.18;100.00;46695.56;4924031;29;20111;-71
2022/05/31 03:43:19;;;;;;;11.30;8.13;;;;;;;-145.18;100.00;46699.47;4915909;29;20047;-71
2022/05/31 03:45:44;;;;;;;10.87;8.03;;;;;;;-145.18;100.00;46701.41;4931375;29;20278;-71
2022/05/31 03:48:11;;;;;;;14.40;8.27;;;;;;;-145.18;100.00;46699.47;4925238;29;20042;-70
2022/05/31 03:50:38;;;;;;;12.77;9.07;;;;;;;-145.18;100.00;46699.47;4915586;29;20060;-71
2022/05/31 03:53:11;;;;;;;14.33;9.50;;;;;;;-145.18;100.00;46693.59;4915633;29;20281;-71
2022/05/31 03:55:42;;;;;;;14.57;8.87;;;;;;;-145.18;100.00;46689.69;4915870;29;20270;-71
2022/05/31 03:58:08;;;;;;;14.20;9.37;;;;;;;-145.18;100.00;46695.56;4930408;29;20364;-71
2022/05/31 04:00:34;;;;;;;14.00;8.83;;;;;;;-145.18;100.00;46693.59;4928578;29;20279;-71
2022/05/31 04:02:59;;;;;;;12.73;9.40;;;;;;;-145.18;100.00;46693.59;4928979;29;20348;-71
2022/05/31 04:05:25;;;;;;;15.20;9.43;;;;;;;-145.18;100.00;46697.50;4933633;29;20436;-71
2022/05/31 04:07:51;;;;;;;16.67;9.80;;;;;;;-145.18;100.00;46695.56;4931887;29;20039;-71
2022/05/31 04:10:17;;;;;;;12.10;9.90;;;;;;;-145.18;100.00;46697.50;4934410;29;20090;-71
2022/05/31 04:12:42;;;;;;;14.00;9.03;;;;;;;-145.18;100.00;46697.50;4933902;29;20373;-71
2022/05/31 04:15:08;;;;;;;14.53;8.90;;;;;;;-145.18;100.00;46697.50;4934139;29;20485;-71
2022/05/31 04:17:34;;;;;;;13.80;8.73;;;;;;;-145.18;100.00;46693.59;4933785;29;20433;-71
2022/05/31 04:19:59;;;;;;;14.10;9.03;;;;;;;-145.18;100.00;46697.50;4934051;29;20046;-71
2022/05/31 04:22:24;;;;;;;11.43;8.40;;;;;;;-145.18;100.00;46687.75;4934000;29;20050;-72
2022/05/31 04:24:54;;;;;;;13.20;8.43;;;;;;;-145.18;100.00;46697.50;4925614;29;20035;-71
2022/05/31 04:27:20;;;;;;;14.30;8.03;;;;;;;-145.18;100.00;46693.59;4915568;29;20040;-71
2022/05/31 04:29:45;;;;;;;13.77;8.60;;;;;;;-145.18;100.00;46697.50;4914631;29;20696;-71
2022/05/31 04:32:15;;;;;;;15.27;7.87;;;;;;;-145.18;100.00;46697.50;4925526;29;20118;-71
2022/05/31 04:34:42;;;;;;;10.73;8.30;;;;;;;-145.18;100.00;46691.66;4930359;29;20032;-71
2022/05/31 04:37:07;;;;;;;10.37;7.50;;;;;;;-145.18;100.00;46689.69;4931255;29;20285;-71
2022/05/31 04:39:33;;;;;;;10.80;7.43;;;;;;;-145.18;100.00;46683.84;4933085;29;20274;-71
2022/05/31 04:41:58;;;;;;;9.27;7.50;;;;;;;-145.18;100.00;46679.94;4931457;29;20027;-71
2022/05/31 04:44:23;;;;;;;12.20;7.90;;;;;;;-145.18;100.00;46681.88;4933236;29;20463;-71
2022/05/31 04:46:49;;;;;;;12.00;8.00;;;;;;;-145.18;100.00;46679.94;4933564;29;20032;-71
2022/05/31 04:49:15;;;;;;;11.97;8.53;;;;;;;-145.18;100.00;46679.94;4933465;29;20036;-71
2022/05/31 04:51:41;;;;;;;24.63;8.97;;;;;;;-145.18;100.00;46668.22;4933748;29;20079;-71
2022/05/31 04:54:07;;;;;;;10.90;7.53;;;;;;;-145.18;100.00;46664.31;4932446;29;20059;-70
2022/05/31 04:56:32;;;;;;;13.20;8.50;;;;;;;-145.18;100.00;46648.69;4933493;29;20317;-71
2022/05/31 04:58:57;;;;;;;12.60;7.50;;;;;;;-145.18;100.00;46617.41;4932003;29;20032;-72
2022/05/31 05:01:24;;;;;;;12.63;8.13;;;;;;;-145.18;100.00;46633.06;4932381;29;20946;-71
2022/05/31 05:03:50;;;;;;;12.67;8.20;;;;;;;-145.18;100.00;46633.06;4930099;29;20055;-71
2022/05/31 05:06:17;;;;;;;9.57;8.00;;;;;;;-145.18;100.00;46633.06;4933907;29;20774;-71
2022/05/31 05:08:43;;;;;;;15.83;8.70;;;;;;;-145.18;100.00;46593.97;4933081;29;20032;-71
2022/05/31 05:11:14;;;;;;;14.93;8.97;;;;;;;-145.18;100.00;46574.44;4933584;29;20271;-71
2022/05/31 05:13:41;;;;;;;12.20;8.20;;;;;;;-145.18;100.00;46564.69;4933033;29;20790;-71
2022/05/31 05:16:08;;;;;;;14.73;8.27;;;;;;;-145.18;100.00;46556.88;4933849;29;20289;-71
2022/05/31 05:18:34;;;;;;;11.70;7.60;;;;;;;-145.18;100.00;46558.81;4933206;29;20306;-71
2022/05/31 05:21:02;;;;;;;10.97;8.10;;;;;;;-145.18;100.00;46558.81;4933615;29;20322;-71
2022/05/31 05:23:28;;;;;;;13.73;8.10;;;;;;;-145.18;100.00;46552.97;4933111;29;20290;-71
2022/05/31 05:25:55;;;;;;;11.13;7.30;;;;;;;-145.18;100.00;46558.81;4933176;29;20292;-71
2022/05/31 05:31:06;;;;;;;12.60;8.80;;;;;;;-145.18;100.00;46560.78;4933954;29;20308;-71
2022/05/31 05:33:32;;;;;;;15.80;8.57;;;;;;;-145.18;100.00;46554.91;4933092;29;20271;-71
2022/05/31 05:35:58;;;;;;;15.77;8.20;;;;;;;-145.18;100.00;46560.78;4933353;29;20058;-72
2022/05/31 05:38:24;;;;;;;13.60;8.57;;;;;;;-145.18;100.00;46556.88;4933212;29;20488;-71
2022/05/31 05:40:50;;;;;;;18.20;8.47;;;;;;;-145.18;100.00;46566.63;4933238;29;20061;-71
2022/05/31 05:43:16;;;;;;;15.60;8.57;;;;;;;-145.18;100.00;46574.44;4933002;29;20488;-72
2022/05/31 05:45:42;;;;;;;12.93;8.57;;;;;;;-145.18;100.00;46576.41;4930063;29;20032;-71
2022/05/31 05:48:08;;;;;;;17.17;8.80;;;;;;;-145.18;100.00;46574.44;4932434;29;20099;-71
2022/05/31 05:50:36;;;;;;;11.90;8.23;;;;;;;-145.18;100.00;46590.06;4925689;29;20035;-71
2022/05/31 05:53:05;;;;;;;18.77;8.23;;;;;;;-145.18;100.00;46580.31;4913962;29;20028;-72
2022/05/31 05:55:31;;;;;;;17.50;7.70;;;;;;;-145.18;100.00;46592.03;4914190;29;20039;-72
2022/05/31 05:57:56;;;;;;;11.20;7.13;;;;;;;-145.18;100.00;46599.84;4913520;29;20489;-71
2022/05/31 06:00:22;;;;;;;13.60;7.83;;;;;;;-145.18;100.00;46597.88;4923426;29;20032;-71
2022/05/31 06:02:53;;;;;;;16.27;7.43;;;;;;;-145.18;100.00;46613.50;4929269;29;20046;-71
2022/05/31 06:05:26;;;;;;;10.23;6.87;;;;;;;-145.18;100.00;46619.38;4930627;29;20028;-71
2022/05/31 06:08:00;;;;;;;13.57;7.77;;;;;;;-145.18;100.00;46615.47;4931662;29;20515;-72
2022/05/31 06:10:37;;;;;;;11.00;7.27;;;;;;;-145.18;100.00;46619.38;4933004;29;20032;-71
2022/05/31 06:13:23;;;;;;;13.40;7.97;;;;;;;-145.18;100.00;46609.59;4932391;29;20059;-72
2022/05/31 06:15:54;;;;;;;14.00;7.80;;;;;;;-145.18;100.00;46652.59;4932184;29;20027;-71
2022/05/31 06:18:24;;;;;;;13.50;7.47;;;;;;;-145.18;100.00;46619.38;4931527;29;20053;-71
2022/05/31 06:20:59;;;;;;;14.93;7.60;;;;;;;-145.18;100.00;46627.19;4932967;29;20034;-71
2022/05/31 06:23:24;;;;;;;14.13;7.50;;;;;;;-145.18;100.00;46633.06;4932675;29;20095;-71
2022/05/31 06:25:50;;;;;;;17.70;7.47;;;;;;;-145.18;100.00;46654.53;4932043;29;20501;-72
2022/05/31 06:28:16;;;;;;;10.63;6.93;;;;;;;-145.18;100.00;46679.94;4932227;29;20057;-71
2022/05/31 06:30:41;;;;;;;9.37;6.47;;;;;;;-145.18;100.00;46672.13;4933007;29;20038;-72
2022/05/31 06:33:06;;;;;;;12.17;7.03;;;;;;;-145.18;100.00;46699.47;4932168;29;20047;-71
2022/05/31 06:35:32;;;;;;;10.93;6.60;;;;;;;-145.18;100.00;46687.75;4932792;29;20063;-71
2022/05/31 06:37:58;;;;;;;17.00;9.03;;;;;;;-145.18;100.00;46683.84;4932012;29;20396;-72
2022/05/31 06:40:23;;;;;;;15.13;8.03;;;;;;;-145.18;100.00;46674.06;4932604;29;20115;-71
2022/05/31 06:42:49;;;;;;;12.33;7.47;;;;;;;-145.18;100.00;46697.50;4935309;29;20047;-72
2022/05/31 06:45:14;;;;;;;14.67;8.70;;;;;;;-145.18;100.00;46672.13;4936011;29;20381;-71
2022/05/31 06:47:39;;;;;;;11.20;7.23;;;;;;;-145.18;100.00;46691.66;4935397;29;20571;-71
2022/05/31 06:50:06;;;;;;;14.77;7.57;;;;;;;-145.18;100.00;46664.31;4935033;29;20273;-71
2022/05/31 06:58:01;;;;;;;15.02;7.93;;;;;;;-145.18;100.00;46906.53;4924522;29;20412;-72
2022/05/31 07:00:26;;;;;;;14.63;7.77;;;;;;;-145.18;100.00;47305.06;4936057;29;20036;-72
2022/05/31 07:02:54;;;;;;;13.00;7.90;;;;;;;-145.18;100.00;47349.97;4935375;29;20475;-72
2022/05/31 07:05:20;;;;;;;13.97;7.27;;;;;;;-145.18;100.00;47301.16;4935512;29;20120;-72
2022/05/31 07:07:46;;;;;;;14.73;9.20;;;;;;;-145.18;100.00;47307.00;4935573;29;20110;-71
2022/05/31 07:10:12;;;;;;;13.03;7.97;;;;;;;-145.18;100.00;47269.88;4935320;29;20386;-71
2022/05/31 07:12:40;;;;;;;17.10;8.63;;;;;;;-145.18;100.00;47279.66;4935264;29;20034;-72
2022/05/31 07:15:06;;;;;;;13.00;8.30;;;;;;;-145.18;100.00;47250.34;4935472;29;20063;-72
2022/05/31 07:17:32;;;;;;;12.60;7.90;;;;;;;-145.18;100.00;47219.09;4935656;29;20697;-72
2022/05/31 07:19:57;;;;;;;13.80;7.87;;;;;;;-145.18;100.00;47234.72;4935112;29;20039;-72
2022/05/31 07:22:22;;;;;;;18.07;7.77;;;;;;;-145.18;100.00;47228.84;4935715;29;20067;-72
2022/05/31 07:24:48;;;;;;;11.07;7.70;;;;;;;-145.18;100.00;47242.53;4934811;29;20122;-72
2022/05/31 07:27:15;;;;;;;12.00;7.40;;;;;;;-145.18;100.00;47250.34;4935423;29;20098;-72
2022/05/31 07:29:40;;;;;;;13.07;8.00;;;;;;;-145.18;100.00;47242.53;4934864;29;20030;-72
2022/05/31 07:32:07;;;;;;;14.63;8.67;;;;;;;-145.18;100.00;47215.19;4935617;29;20463;-72
2022/05/31 07:34:33;;;;;;;14.50;8.63;;;;;;;-145.18;100.00;47230.81;4934867;29;20643;-72
2022/05/31 07:36:58;;;;;;;18.13;8.87;;;;;;;-145.18;100.00;47219.09;4935007;29;20108;-72
2022/05/31 07:39:24;;;;;;;16.23;8.83;;;;;;;-145.18;100.00;47199.56;4934564;29;20042;-72
2022/05/31 07:41:54;;;;;;;19.23;8.63;;;;;;;-145.18;100.00;47189.78;4935101;29;20603;-72
2022/05/31 07:44:20;;;;;;;14.57;8.43;;;;;;;-145.18;100.00;47211.28;4934865;29;20028;-72
2022/05/31 07:46:46;;;;;;;12.13;8.60;;;;;;;-145.18;100.00;47201.50;4934992;29;20031;-72
2022/05/31 07:49:12;;;;;;;12.50;8.53;;;;;;;-145.18;100.00;47219.09;4934792;29;20035;-72
2022/05/31 07:51:37;;;;;;;14.30;8.40;;;;;;;-145.18;100.00;47223.00;4934513;29;20032;-72
2022/05/31 07:54:02;;;;;;;12.43;8.50;;;;;;;-145.18;100.00;47207.38;4934585;29;20050;-72
2022/05/31 07:56:28;;;;;;;17.27;8.07;;;;;;;-145.18;100.00;47215.19;4934824;29;20035;-72
2022/05/31 07:58:54;;;;;;;13.27;8.13;;;;;;;-145.18;100.00;47201.50;4934238;29;20031;-72
2022/05/31 08:01:24;;;;;;;15.17;8.53;;;;;;;-145.18;100.00;47228.84;4935140;29;20028;-72
2022/05/31 08:03:50;;;;;;;12.43;8.03;;;;;;;-145.18;100.00;47226.91;4933808;29;20807;-72
2022/05/31 08:06:22;;;;;;;14.07;8.33;;;;;;;-145.18;100.00;47230.81;4934768;29;20059;-72
2022/05/31 08:08:48;;;;;;;9.73;7.30;;;;;;;-145.18;100.00;47191.75;4934250;29;20040;-72
2022/05/31 08:11:23;;;;;;;11.77;7.97;;;;;;;-145.18;100.00;47195.66;4934852;29;20036;-72
2022/05/31 08:13:49;;;;;;;13.57;8.27;;;;;;;-145.18;100.00;47181.97;4933918;29;20105;-72
2022/05/31 08:16:21;;;;;;;13.17;8.07;;;;;;;-145.18;100.00;47183.94;4934822;29;20093;-72
2022/05/31 08:18:48;;;;;;;13.10;7.57;;;;;;;-145.18;100.00;47189.78;4934033;28;20075;-72
2022/05/31 08:21:19;;;;;;;14.10;7.00;;;;;;;-145.18;100.00;47172.19;4934287;29;20048;-72
2022/05/31 08:23:45;;;;;;;14.70;7.97;;;;;;;-145.18;100.00;47168.28;4933603;28;20513;-72
2022/05/31 08:26:11;;;;;;;16.93;9.50;;;;;;;-145.18;100.00;47203.47;4933428;29;20043;-72
2022/05/31 08:28:36;;;;;;;15.23;9.90;;;;;;;-145.18;100.00;47209.31;4933738;29;20120;-72
2022/05/31 08:31:10;;;;;;;20.67;10.20;;;;;;;-145.18;100.00;47193.69;4934341;28;20401;-72
2022/05/31 08:33:35;;;;;;;13.50;9.67;;;;;;;-145.18;100.00;47168.28;4933649;29;20035;-73
2022/05/31 08:36:01;;;;;;;15.63;9.13;;;;;;;-145.18;100.00;47168.28;4934168;29;20408;-72
2022/05/31 08:38:26;;;;;;;15.07;8.20;;;;;;;-145.18;100.00;47160.47;4933893;29;20031;-72
2022/05/31 08:40:51;;;;;;;12.47;8.40;;;;;;;-145.18;100.00;47180.03;4948603;28;20047;-72
2022/05/31 08:43:23;;;;;;;11.77;8.47;;;;;;;-145.18;100.00;47199.56;4933640;29;20118;-72
2022/05/31 08:46:11;;;;;;;15.20;9.53;;;;;;;-145.18;100.00;47234.72;4933821;29;20035;-72
2022/05/31 08:48:53;;;;;;;19.40;10.43;;;;;;;-145.18;100.00;47185.88;4933333;29;20548;-72
2022/05/31 08:57:03;;;;;;;13.33;8.77;;;;;;;-145.18;100.00;47168.28;4933746;29;20130;-72
2022/05/31 08:59:51;;;;;;;14.93;8.93;;;;;;;-145.18;100.00;47154.63;4933442;29;20158;-72
2022/05/31 09:02:22;;;;;;;9.47;6.50;;;;;;;-145.18;100.00;47142.91;4932509;29;20047;-72
2022/05/31 09:05:03;;;;;;;12.50;7.50;;;;;;;-145.18;100.00;47152.66;4932184;29;20040;-72
2022/05/31 09:08:10;;;;;;;11.00;7.43;;;;;;;-145.18;100.00;47152.66;4933550;28;20477;-72
2022/05/31 09:10:38;;;;;;;12.13;7.77;;;;;;;-145.18;100.00;47135.09;4892690;29;20048;-72
2022/05/31 09:13:43;;;;;;;11.07;6.70;;;;;;;-145.18;100.00;47125.31;4893132;29;20028;-72
2022/05/31 09:16:13;;;;;;;9.23;5.60;;;;;;;-145.18;100.00;47119.47;4924458;29;20043;-73
2022/05/31 09:18:44;;;;;;;7.23;4.67;;;;;;;-145.18;100.00;47133.13;4932777;28;20512;-73
2022/05/31 09:21:19;;;;;;;9.20;5.27;;;;;;;-145.18;100.00;47115.56;4933473;29;20681;-73
2022/05/31 09:23:46;;;;;;;10.82;6.60;;;;;;;-145.18;100.00;47097.97;4932474;29;20083;-74
2022/05/31 09:26:40;;;;;;;8.47;4.30;;;;;;;-145.18;100.00;47135.09;4933647;29;20055;-73
2022/05/31 09:29:09;;;;;;;7.97;4.60;;;;;;;-145.18;100.00;47125.31;4933100;29;20030;-74
2022/05/31 09:31:43;;;;;;;13.00;5.67;;;;;;;-145.18;100.00;47139.00;4933169;29;20038;-73
2022/05/31 09:34:20;;;;;;;9.23;5.70;;;;;;;-145.18;100.00;47125.31;4933025;29;20443;-74
2022/05/31 09:37:31;;;;;;;8.30;5.50;;;;;;;-145.18;100.00;47086.25;4933060;29;20047;-74
2022/05/31 09:40:26;;;;;;;12.10;7.23;;;;;;;-145.18;100.00;47078.44;4892409;29;20120;-73
2022/05/31 09:42:58;;;;;;;14.13;7.83;;;;;;;-145.18;100.00;47096.00;4932946;29;20114;-73
2022/05/31 09:45:23;;;;;;;12.60;7.77;;;;;;;-145.18;100.00;47094.06;4932652;29;20031;-74
2022/05/31 09:47:50;;;;;;;11.23;7.03;;;;;;;-145.18;100.00;47097.97;4932964;29;20036;-73
2022/05/31 09:50:27;;;;;;;9.63;5.10;;;;;;;-145.18;100.00;47080.38;4933038;29;20036;-74
2022/05/31 09:52:56;;;;;;;8.37;4.80;;;;;;;-145.18;100.00;47088.19;4932936;29;20091;-74
2022/05/31 09:58:20;;;;;;;13.23;5.43;;;;;;;-145.18;100.00;47074.53;4932931;29;20031;-74
2022/05/31 10:01:05;;;;;;;7.07;4.90;;;;;;;-145.18;100.00;47131.19;4932792;29;20035;-74
2022/05/31 10:03:53;;;;;;;12.27;5.63;;;;;;;-145.18;100.00;47088.19;4932663;29;20079;-74
2022/05/31 10:06:32;;;;;;;9.73;5.53;;;;;;;-145.18;100.00;47115.56;4932937;29;20083;-74
2022/05/31 10:09:16;;;;;;;9.17;4.23;;;;;;;-145.18;100.00;47135.09;4932229;28;20555;-74
2022/05/31 10:11:45;;;;;;;7.73;5.33;;;;;;;-145.18;100.00;47062.81;4932780;29;20036;-74
2022/05/31 10:14:26;;;;;;;11.03;5.23;;;;;;;-145.18;100.00;47064.75;4932422;29;20032;-76
2022/05/31 10:16:54;;;;;;;10.37;5.93;;;;;;;-145.18;100.00;47039.34;4936091;29;20119;-74
2022/05/31 10:19:29;;;;;;;9.57;5.30;;;;;;;-145.18;100.00;47047.19;4936446;29;20433;-74
2022/05/31 10:21:56;;;;;;;13.10;6.07;;;;;;;-145.18;100.00;47094.06;4936137;29;20411;-74
2022/05/31 10:24:27;;;;;;;11.13;6.03;;;;;;;-145.18;100.00;47090.16;4936100;28;20031;-74
2022/05/31 10:27:07;;;;;;;9.93;5.70;;;;;;;-145.18;100.00;47097.97;4935832;29;20067;-74
2022/05/31 10:29:51;;;;;;;8.40;5.40;;;;;;;-145.18;100.00;47058.91;4950581;28;20175;-74
2022/05/31 10:32:29;;;;;;;12.50;5.50;;;;;;;-145.18;100.00;47115.56;4936355;29;20119;-74
2022/05/31 10:35:11;;;;;;;10.53;6.30;;;;;;;-145.18;100.00;47070.63;4950030;29;20373;-74
2022/05/31 10:37:37;;;;;;;11.13;5.47;;;;;;;-145.18;100.00;47101.88;4936190;29;20027;-74
2022/05/31 10:40:10;;;;;;;10.00;6.33;;;;;;;-145.18;100.00;47064.75;4936089;29;20067;-74
2022/05/31 10:42:42;;;;;;;8.67;5.70;;;;;;;-145.18;100.00;47031.53;4935891;29;20049;-74
2022/05/31 10:45:08;;;;;;;10.03;6.60;;;;;;;-145.18;100.00;47080.38;4935808;29;20718;-74
2022/05/31 10:47:34;;;;;;;7.70;5.40;;;;;;;-145.18;100.00;47109.69;4935865;29;20756;-74
2022/05/31 10:50:01;;;;;;;7.70;4.60;;;;;;;-145.18;100.00;47047.19;4935078;29;20039;-74
2022/05/31 10:52:49;;;;;;;9.07;5.03;;;;;;;-145.18;100.00;47084.28;4936223;29;20035;-74
2022/05/31 10:55:29;;;;;;;9.87;5.00;;;;;;;-145.18;100.00;47064.75;4916881;29;20127;-74
2022/05/31 10:58:12;;;;;;;8.43;4.90;;;;;;;-145.18;100.00;47023.72;4935421;29;20427;-74
2022/05/31 11:00:46;;;;;;;11.00;5.50;;;;;;;-145.18;99.45;47064.75;4936015;28;20039;-74
2022/05/31 11:03:22;;;;;;;8.40;5.27;;;;;;;-145.18;100.00;47094.06;4935315;29;20059;-74
2022/05/31 11:06:16;;;;;;;7.22;5.00;;;;;;;-145.18;97.29;47133.13;4935322;29;20568;-74
2022/05/31 11:12:09;;;;;;;9.63;5.20;;;;;;;-145.18;100.00;47152.66;4935694;29;20074;-74
2022/05/31 11:14:53;;;;;;;10.47;5.70;;;;;;;-145.18;100.00;47150.72;4935257;29;20039;-73
2022/05/31 11:17:54;;;;;;;8.90;5.17;;;;;;;-145.18;100.00;47162.44;4935928;28;20031;-73
2022/05/31 11:20:41;;;;;;;9.30;4.27;;;;;;;-145.18;100.00;47152.66;4928112;29;20044;-73
2022/05/31 11:23:09;;;;;;;8.17;4.87;;;;;;;-145.18;100.00;47133.13;4935627;29;20436;-73
2022/05/31 11:25:40;;;;;;;9.23;4.70;;;;;;;-145.18;100.00;47121.41;4935356;29;20115;-74
2022/05/31 11:28:36;;;;;;;7.20;4.27;;;;;;;-145.18;100.00;47029.59;4934701;29;20051;-74
2022/05/31 11:31:17;;;;;;;11.18;4.30;;;;;;;-145.18;87.43;47002.25;4935205;29;20094;-74
2022/05/31 11:34:00;;;;;;;10.10;5.20;;;;;;;-145.18;90.61;47013.97;4934921;29;20044;-73
2022/05/31 11:37:18;;;;;;;10.10;4.43;;;;;;;-145.18;85.55;47113.59;4935220;29;20135;-73
2022/05/31 11:40:04;;;;;;;6.97;4.57;;;;;;;-145.18;97.28;47109.69;4913270;29;20040;-73